Time;durP1;ratioP1;P1;durP2;ratioP2;P2;SDS_P1;SDS_P2;PMS_P1;PMS_P2;Temp;Humidity;BMP_temperature;BMP_pressure;BME280_temperature;BME280_humidity;BME280_pressure;Samples;Min_cycle;Max_cycle;Signal;HPM_P1;HPM_P2
2022/08/07 00:00:59;;;;;;;8.37;5.17;;;14.20;99.90;;;;;;4373199;28;657172;-67
2022/08/07 00:03:46;;;;;;;11.40;4.90;;;14.10;99.90;;;;;;4355650;28;656427;-65
2022/08/07 00:06:34;;;;;;;10.50;4.97;;;14.10;99.90;;;;;;4372219;28;657898;-67
2022/08/07 00:09:22;;;;;;;14.20;5.03;;;14.10;99.90;;;;;;4355555;28;658523;-66
2022/08/07 00:12:09;;;;;;;8.80;5.03;;;14.10;99.90;;;;;;4370378;28;658613;-66
2022/08/07 00:14:56;;;;;;;11.83;4.50;;;14.10;99.90;;;;;;4356610;28;658179;-65
2022/08/07 00:17:44;;;;;;;7.33;4.53;;;14.10;99.90;;;;;;4375064;28;657389;-66
2022/08/07 00:20:31;;;;;;;11.57;4.70;;;14.10;99.90;;;;;;4352647;28;656376;-66
2022/08/07 00:23:18;;;;;;;8.93;4.80;;;14.00;99.90;;;;;;4375452;28;657983;-66
2022/08/07 00:26:07;;;;;;;8.63;4.43;;;13.90;99.90;;;;;;4355018;28;657242;-67
2022/08/07 00:28:55;;;;;;;10.63;4.43;;;13.90;99.90;;;;;;4368861;28;656309;-67
2022/08/07 00:31:42;;;;;;;8.47;4.40;;;13.90;99.90;;;;;;4369397;28;657587;-65
2022/08/07 00:34:29;;;;;;;5.70;4.07;;;13.90;99.90;;;;;;4375202;28;657467;-65
2022/08/07 00:37:17;;;;;;;7.93;4.40;;;14.00;99.90;;;;;;4354166;28;657094;-66
2022/08/07 00:40:04;;;;;;;11.20;4.67;;;14.10;99.90;;;;;;4369608;28;657917;-66
2022/08/07 00:42:53;;;;;;;10.77;4.50;;;14.00;99.90;;;;;;4350924;28;657329;-66
2022/08/07 00:45:40;;;;;;;9.13;5.23;;;14.10;99.90;;;;;;4350987;28;657356;-66
2022/08/07 00:48:27;;;;;;;10.07;4.77;;;14.10;99.90;;;;;;4376329;28;657407;-66
2022/08/07 00:51:15;;;;;;;8.43;4.87;;;14.10;99.90;;;;;;4361586;28;657317;-66
2022/08/07 00:54:02;;;;;;;11.23;4.93;;;14.10;99.90;;;;;;4373910;28;656168;-66
2022/08/07 00:56:49;;;;;;;13.97;5.30;;;14.10;99.90;;;;;;4370967;28;658155;-65
2022/08/07 00:59:38;;;;;;;7.43;4.50;;;14.10;99.90;;;;;;4355656;28;659208;-66
2022/08/07 01:02:25;;;;;;;11.63;4.47;;;14.00;99.90;;;;;;4355576;28;656859;-67
2022/08/07 01:05:12;;;;;;;8.77;4.33;;;13.90;99.90;;;;;;4367995;28;659072;-67
2022/08/07 01:08:00;;;;;;;7.60;4.47;;;14.00;99.90;;;;;;4373920;28;657426;-67
2022/08/07 01:10:47;;;;;;;8.40;4.20;;;13.90;99.90;;;;;;4374881;28;657329;-65
2022/08/07 01:13:34;;;;;;;8.00;4.27;;;13.80;99.90;;;;;;4375321;28;656879;-66
2022/08/07 01:16:23;;;;;;;7.53;3.50;;;13.90;99.90;;;;;;4356110;28;656565;-65
2022/08/07 01:19:10;;;;;;;6.97;4.47;;;13.80;99.90;;;;;;4354240;28;656470;-67
2022/08/07 01:21:59;;;;;;;5.88;4.45;;;13.80;99.90;;;;;;4376255;28;656850;-65
2022/08/07 01:24:46;;;;;;;4.70;4.23;;;13.70;99.90;;;;;;4354267;28;656964;-66
2022/08/07 01:27:33;;;;;;;10.67;4.20;;;13.70;99.90;;;;;;4376796;28;657376;-66
2022/08/07 01:30:20;;;;;;;5.80;4.10;;;13.60;99.90;;;;;;4358112;28;658145;-67
2022/08/07 01:33:07;;;;;;;5.87;3.77;;;13.60;99.90;;;;;;4378873;28;656787;-66
2022/08/07 01:35:54;;;;;;;5.00;3.93;;;13.50;99.90;;;;;;4373259;28;656411;-66
2022/08/07 01:38:43;;;;;;;4.50;3.93;;;13.40;99.90;;;;;;4354266;28;656487;-65
2022/08/07 01:41:30;;;;;;;5.13;4.20;;;13.30;99.90;;;;;;4358708;28;656724;-66
2022/08/07 01:44:17;;;;;;;5.70;3.53;;;13.30;99.90;;;;;;4377068;28;657399;-66
2022/08/07 01:47:05;;;;;;;8.07;3.93;;;13.40;99.90;;;;;;4374050;28;656386;-66
2022/08/07 01:49:52;;;;;;;4.43;3.67;;;13.30;99.90;;;;;;4355154;28;657025;-66
2022/08/07 01:52:39;;;;;;;5.93;3.90;;;13.20;99.90;;;;;;4371998;28;656832;-67
2022/08/07 01:55:29;;;;;;;5.40;4.05;;;13.20;99.90;;;;;;4355322;28;658037;-66
2022/08/07 01:58:18;;;;;;;4.47;3.47;;;13.20;99.90;;;;;;4355101;28;656605;-65
2022/08/07 02:01:09;;;;;;;5.47;3.23;;;13.10;99.90;;;;;;4352461;28;656563;-65
2022/08/07 02:03:59;;;;;;;7.73;3.70;;;13.00;99.90;;;;;;4354910;28;657271;-66
2022/08/07 02:06:47;;;;;;;4.78;3.83;;;12.90;99.90;;;;;;4347777;28;657517;-66
2022/08/07 02:09:35;;;;;;;4.20;3.50;;;12.80;99.90;;;;;;4370269;28;656712;-67
2022/08/07 02:12:23;;;;;;;6.83;3.20;;;12.80;99.90;;;;;;4377442;28;655891;-66
2022/08/07 02:15:11;;;;;;;5.60;3.27;;;12.70;99.90;;;;;;4351760;28;657517;-66
2022/08/07 02:17:58;;;;;;;6.07;3.50;;;12.60;99.90;;;;;;4371028;28;657476;-67
2022/08/07 02:20:47;;;;;;;3.90;3.50;;;12.70;99.90;;;;;;4351581;28;657061;-67
2022/08/07 02:23:35;;;;;;;6.87;3.70;;;12.60;99.90;;;;;;4372329;28;656793;-66
2022/08/07 02:26:22;;;;;;;6.30;3.43;;;12.50;99.90;;;;;;4352594;28;657052;-65
2022/08/07 02:29:11;;;;;;;7.40;3.73;;;12.40;99.90;;;;;;4370043;28;657252;-66
2022/08/07 02:31:58;;;;;;;6.60;3.57;;;12.30;99.90;;;;;;4354033;28;657834;-65
2022/08/07 02:34:45;;;;;;;4.10;3.70;;;12.20;99.90;;;;;;4353098;28;656377;-66
2022/08/07 02:37:33;;;;;;;6.23;3.37;;;12.00;99.90;;;;;;4374401;28;657945;-66
2022/08/07 02:40:20;;;;;;;6.33;3.67;;;12.10;99.90;;;;;;4351876;28;656663;-66
2022/08/07 02:43:07;;;;;;;3.80;3.40;;;12.00;99.90;;;;;;4373512;28;657346;-65
2022/08/07 02:45:56;;;;;;;4.13;3.73;;;11.90;99.90;;;;;;4367002;28;656235;-65
2022/08/07 02:48:43;;;;;;;4.73;3.70;;;12.00;99.90;;;;;;4345662;28;657463;-65
2022/08/07 02:51:32;;;;;;;4.10;3.70;;;11.90;99.90;;;;;;4346560;28;656489;-66
2022/08/07 02:54:19;;;;;;;4.97;4.07;;;11.90;99.90;;;;;;4361365;28;656314;-66
2022/08/07 02:57:06;;;;;;;5.60;4.10;;;11.80;99.90;;;;;;4333093;28;657033;-65
2022/08/07 02:59:53;;;;;;;8.10;4.03;;;11.80;99.90;;;;;;4348703;28;657943;-65
2022/08/07 03:02:44;;;;;;;7.30;4.27;;;11.70;99.90;;;;;;4330880;28;656635;-66
2022/08/07 03:05:31;;;;;;;6.33;4.00;;;11.50;99.90;;;;;;4337057;28;656394;-65
2022/08/07 03:08:18;;;;;;;4.90;3.80;;;11.50;99.90;;;;;;4350140;28;656964;-66
2022/08/07 03:11:06;;;;;;;4.13;3.73;;;11.40;99.90;;;;;;4336297;28;656671;-67
2022/08/07 03:13:53;;;;;;;6.07;4.03;;;11.40;99.90;;;;;;4360486;28;658009;-66
2022/08/07 03:16:41;;;;;;;4.73;4.03;;;11.50;99.90;;;;;;4339644;28;657125;-68
2022/08/07 03:19:30;;;;;;;6.23;3.93;;;11.40;99.90;;;;;;4355758;28;658652;-66
2022/08/07 03:22:17;;;;;;;4.23;3.83;;;11.50;99.90;;;;;;4336244;28;657271;-65
2022/08/07 03:25:06;;;;;;;5.10;3.80;;;11.40;99.90;;;;;;4348297;28;657326;-68
2022/08/07 03:27:53;;;;;;;4.87;3.97;;;11.40;99.90;;;;;;4355827;28;657338;-66
2022/08/07 03:30:40;;;;;;;6.10;4.70;;;11.40;99.90;;;;;;4345271;28;656925;-67
2022/08/07 03:33:27;;;;;;;8.37;4.20;;;11.40;99.90;;;;;;4359848;28;656928;-66
2022/08/07 03:36:16;;;;;;;7.10;3.90;;;11.50;99.90;;;;;;4354773;28;656796;-66
2022/08/07 03:39:04;;;;;;;6.50;3.80;;;11.50;99.90;;;;;;4334109;28;657142;-67
2022/08/07 03:41:52;;;;;;;6.33;3.50;;;11.50;99.90;;;;;;4336836;28;656546;-66
2022/08/07 03:44:39;;;;;;;5.23;3.90;;;11.60;99.90;;;;;;4354886;28;656816;-66
2022/08/07 03:47:26;;;;;;;4.68;3.97;;;11.60;99.90;;;;;;4326595;28;656976;-66
2022/08/07 03:50:13;;;;;;;7.77;4.83;;;11.60;99.90;;;;;;4356463;28;657173;-66
2022/08/07 03:53:01;;;;;;;7.47;5.03;;;11.60;99.90;;;;;;4346034;28;656281;-67
2022/08/07 03:55:49;;;;;;;9.63;4.90;;;11.70;99.90;;;;;;4366412;28;656388;-67
2022/08/07 03:58:36;;;;;;;7.07;4.80;;;11.70;99.90;;;;;;4350987;28;657936;-67
2022/08/07 04:01:23;;;;;;;5.43;4.70;;;11.70;99.90;;;;;;4373426;28;657175;-65
2022/08/07 04:04:10;;;;;;;7.13;4.47;;;11.80;99.90;;;;;;4350100;28;656879;-66
2022/08/07 04:06:58;;;;;;;5.87;4.77;;;11.90;99.90;;;;;;4366289;28;658337;-66
2022/08/07 04:09:47;;;;;;;6.37;4.77;;;11.90;99.90;;;;;;4361838;28;656393;-67
2022/08/07 04:12:34;;;;;;;6.70;4.87;;;11.90;99.90;;;;;;4370981;28;656788;-66
2022/08/07 04:15:21;;;;;;;13.18;4.70;;;12.00;99.90;;;;;;4350808;28;656717;-66
2022/08/07 04:18:08;;;;;;;5.60;4.90;;;12.10;99.90;;;;;;4367592;28;659698;-66
2022/08/07 04:20:55;;;;;;;7.53;4.97;;;12.10;99.90;;;;;;4351918;28;657022;-66
2022/08/07 04:23:42;;;;;;;7.63;5.00;;;12.20;99.90;;;;;;4377203;28;656727;-65
2022/08/07 04:26:31;;;;;;;8.37;4.60;;;12.40;99.90;;;;;;4373458;28;657118;-66
2022/08/07 04:29:18;;;;;;;8.23;5.57;;;12.40;99.90;;;;;;4352862;28;657249;-66
2022/08/07 04:32:06;;;;;;;7.27;5.80;;;12.50;99.90;;;;;;4357582;28;657022;-67
2022/08/07 04:34:54;;;;;;;6.90;5.90;;;12.60;99.90;;;;;;4373831;28;656086;-66
2022/08/07 04:37:41;;;;;;;7.67;5.87;;;12.70;99.90;;;;;;4348488;28;656642;-67
2022/08/07 04:40:28;;;;;;;7.83;5.77;;;12.80;99.90;;;;;;4373583;28;657813;-66
2022/08/07 04:43:18;;;;;;;6.97;5.10;;;13.00;99.90;;;;;;4351336;28;656510;-68
2022/08/07 04:46:08;;;;;;;6.10;5.10;;;13.10;99.90;;;;;;4352365;28;657057;-67
2022/08/07 04:49:00;;;;;;;5.77;4.93;;;13.10;99.90;;;;;;4349487;28;656628;-66
2022/08/07 04:51:51;;;;;;;7.67;5.00;;;13.20;99.90;;;;;;4348193;28;656717;-66
2022/08/07 04:54:43;;;;;;;6.00;5.07;;;13.30;99.90;;;;;;4343443;28;657834;-66
2022/08/07 04:57:32;;;;;;;7.73;5.00;;;13.40;99.90;;;;;;4358610;28;658486;-68
2022/08/07 05:00:25;;;;;;;5.10;4.70;;;13.50;99.90;;;;;;4366116;28;656709;-66
2022/08/07 05:03:20;;;;;;;11.03;5.03;;;13.70;99.90;;;;;;4313414;28;656772;-68
2022/08/07 05:06:09;;;;;;;8.23;5.43;;;13.90;99.90;;;;;;4323700;28;657575;-68
2022/08/07 05:08:58;;;;;;;7.93;5.47;;;14.00;99.90;;;;;;4356797;28;656782;-66
2022/08/07 05:11:46;;;;;;;8.37;5.43;;;14.20;99.90;;;;;;4355021;28;656436;-67
2022/08/07 05:14:36;;;;;;;7.10;5.23;;;14.40;99.90;;;;;;4379717;28;657498;-66
2022/08/07 05:17:25;;;;;;;7.00;5.37;;;14.50;99.90;;;;;;4358029;28;657932;-66
2022/08/07 05:20:13;;;;;;;8.73;5.00;;;14.60;99.90;;;;;;4355709;28;656822;-66
2022/08/07 05:23:05;;;;;;;9.17;4.67;;;14.70;99.90;;;;;;4350742;28;656823;-68
2022/08/07 05:25:52;;;;;;;6.00;4.60;;;14.80;99.90;;;;;;4353423;28;658395;-66
2022/08/07 05:28:39;;;;;;;10.30;4.30;;;14.80;99.90;;;;;;4374166;28;656855;-68
2022/08/07 05:31:28;;;;;;;5.43;4.43;;;14.90;99.90;;;;;;4352349;28;658264;-66
2022/08/07 05:34:17;;;;;;;8.07;4.27;;;15.00;99.90;;;;;;4369206;28;656447;-68
2022/08/07 05:37:04;;;;;;;7.50;4.23;;;15.00;99.90;;;;;;4372863;28;656462;-68
2022/08/07 05:39:51;;;;;;;7.00;4.38;;;15.00;99.90;;;;;;4350164;28;656847;-67
2022/08/07 05:42:38;;;;;;;5.80;4.60;;;15.10;99.90;;;;;;4376323;28;657314;-67
2022/08/07 05:45:26;;;;;;;11.10;4.70;;;15.10;99.90;;;;;;4355982;28;656307;-68
2022/08/07 05:48:13;;;;;;;6.50;4.00;;;15.20;99.90;;;;;;4373726;28;659210;-66
2022/08/07 05:51:01;;;;;;;6.07;4.10;;;15.40;99.90;;;;;;4364240;28;657677;-68
2022/08/07 05:53:49;;;;;;;8.47;4.17;;;15.60;99.90;;;;;;4352332;28;657087;-67
2022/08/07 05:56:36;;;;;;;5.67;3.20;;;15.70;99.90;;;;;;4332429;28;656300;-67
2022/08/07 05:59:23;;;;;;;5.77;3.67;;;15.90;99.90;;;;;;4375070;28;657262;-67
2022/08/07 06:02:10;;;;;;;5.57;3.23;;;15.90;99.90;;;;;;4352202;28;656963;-68
2022/08/07 06:04:59;;;;;;;7.47;3.80;;;15.90;99.90;;;;;;4371165;28;658313;-67
2022/08/07 06:07:48;;;;;;;5.70;3.83;;;16.10;99.90;;;;;;4355604;28;656766;-67
2022/08/07 06:10:37;;;;;;;7.07;3.50;;;16.20;99.90;;;;;;4361241;28;656514;-67
2022/08/07 06:13:24;;;;;;;4.45;3.60;;;16.20;99.90;;;;;;4370197;28;656790;-66
2022/08/07 06:16:11;;;;;;;6.37;3.57;;;16.30;99.90;;;;;;4350272;28;656271;-65
2022/08/07 06:18:59;;;;;;;4.83;4.00;;;16.60;99.90;;;;;;4369490;28;656695;-65
2022/08/07 06:21:46;;;;;;;6.80;3.77;;;16.70;99.90;;;;;;4356581;28;656540;-65
2022/08/07 06:24:35;;;;;;;7.07;3.50;;;17.00;99.90;;;;;;4370877;28;656924;-65
2022/08/07 06:27:22;;;;;;;8.67;3.37;;;17.30;99.90;;;;;;4358053;28;657642;-65
2022/08/07 06:30:10;;;;;;;8.80;3.77;;;17.50;99.90;;;;;;4373850;28;656259;-65
2022/08/07 06:32:58;;;;;;;5.57;3.37;;;17.70;99.90;;;;;;4352188;28;657706;-65
2022/08/07 06:35:45;;;;;;;9.13;3.27;;;17.90;99.90;;;;;;4367499;28;656810;-66
2022/08/07 06:38:32;;;;;;;3.70;2.80;;;18.20;99.90;;;;;;4381476;28;657433;-65
2022/08/07 06:41:22;;;;;;;4.33;2.50;;;18.40;99.90;;;;;;4376707;28;656911;-65
2022/08/07 06:44:09;;;;;;;4.30;2.17;;;18.60;99.90;;;;;;4353018;28;656437;-65
2022/08/07 06:46:56;;;;;;;4.90;2.03;;;18.80;99.90;;;;;;4355194;28;656722;-65
2022/08/07 06:49:43;;;;;;;3.87;2.30;;;18.90;99.90;;;;;;4372746;28;657870;-64
2022/08/07 06:52:32;;;;;;;6.73;1.80;;;19.10;99.90;;;;;;4357772;28;657588;-65
2022/08/07 06:55:22;;;;;;;5.07;2.07;;;19.20;99.90;;;;;;4371068;28;656365;-66
2022/08/07 06:58:11;;;;;;;5.27;1.80;;;19.10;99.90;;;;;;4373123;28;656468;-65
2022/08/07 07:00:58;;;;;;;4.07;1.80;;;19.00;99.90;;;;;;4345247;28;658002;-65
2022/08/07 07:03:45;;;;;;;4.73;1.80;;;19.30;99.90;;;;;;4354819;28;656776;-65
2022/08/07 07:06:32;;;;;;;4.40;1.70;;;19.50;99.90;;;;;;4372220;28;657418;-65
2022/08/07 07:09:21;;;;;;;2.67;1.40;;;19.60;99.90;;;;;;4371949;28;656206;-65
2022/08/07 07:12:19;;;;;;;5.80;1.83;;;19.90;99.90;;;;;;4348911;28;656819;-66
2022/08/07 07:15:11;;;;;;;7.83;1.70;;;19.80;99.90;;;;;;4331104;28;656966;-66
2022/08/07 07:18:01;;;;;;;4.97;2.00;;;19.20;99.90;;;;;;4345523;28;656861;-64
2022/08/07 07:20:51;;;;;;;4.43;1.90;;;18.70;99.90;;;;;;4352154;28;657127;-64
2022/08/07 07:23:38;;;;;;;5.93;2.10;;;18.50;99.90;;;;;;4350030;28;657648;-64
2022/08/07 07:26:25;;;;;;;7.10;1.90;;;18.40;99.90;;;;;;4355214;28;656573;-66
2022/08/07 07:29:13;;;;;;;8.07;1.30;;;18.10;99.90;;;;;;4376500;28;656840;-64
2022/08/07 07:32:02;;;;;;;3.57;0.93;;;18.20;99.90;;;;;;4359678;28;657505;-66
2022/08/07 07:34:51;;;;;;;1.80;1.10;;;18.60;99.90;;;;;;4371942;28;657115;-65
2022/08/07 07:37:38;;;;;;;1.93;0.80;;;19.20;99.90;;;;;;4351706;28;657969;-64
2022/08/07 07:40:25;;;;;;;1.97;0.80;;;19.30;99.90;;;;;;4352822;28;656486;-65
2022/08/07 07:43:13;;;;;;;2.03;0.67;;;19.40;99.90;;;;;;4378870;28;656348;-65
2022/08/07 07:46:00;;;;;;;3.27;0.80;;;19.50;99.90;;;;;;4363400;28;657210;-65
2022/08/07 07:48:49;;;;;;;3.05;0.85;;;19.40;99.90;;;;;;4374179;28;656596;-64
2022/08/07 07:51:36;;;;;;;4.00;0.70;;;19.70;99.70;;;;;;4353333;28;656184;-64
2022/08/07 07:54:23;;;;;;;2.20;0.60;;;19.80;99.90;;;;;;4377918;28;657412;-64
2022/08/07 07:57:10;;;;;;;3.53;0.57;;;19.90;96.70;;;;;;4363637;28;656964;-65
2022/08/07 07:59:57;;;;;;;4.63;0.90;;;20.10;94.50;;;;;;4382936;28;656817;-65
2022/08/07 08:02:45;;;;;;;6.37;0.70;;;20.10;95.40;;;;;;4373218;28;656904;-65
2022/08/07 08:05:35;;;;;;;1.53;0.60;;;20.10;97.10;;;;;;4350899;28;658348;-65
2022/08/07 08:08:27;;;;;;;3.53;0.70;;;20.40;96.10;;;;;;4352881;28;657376;-65
2022/08/07 08:11:15;;;;;;;5.10;0.90;;;20.80;96.90;;;;;;4368521;28;656592;-66
2022/08/07 08:14:02;;;;;;;3.63;0.80;;;21.10;96.70;;;;;;4378800;28;657111;-67
2022/08/07 08:16:49;;;;;;;2.87;0.80;;;21.40;96.50;;;;;;4369736;28;656689;-65
2022/08/07 08:19:36;;;;;;;2.40;0.97;;;21.50;93.90;;;;;;4348641;28;656472;-65
2022/08/07 08:28:37;;;;;;;1.83;0.57;;;21.80;91.30;;;;;;4320676;28;658319;-65
2022/08/07 08:31:26;;;;;;;2.83;0.60;;;21.80;86.20;;;;;;4350636;28;656903;-66
2022/08/07 08:34:13;;;;;;;1.97;0.70;;;22.00;85.80;;;;;;4370502;28;657391;-64
2022/08/07 08:37:01;;;;;;;2.67;0.50;;;22.20;81.60;;;;;;4355911;28;656693;-65
2022/08/07 08:39:50;;;;;;;3.33;0.60;;;22.30;77.90;;;;;;4377822;28;657566;-65
2022/08/07 08:42:43;;;;;;;2.87;0.50;;;22.50;80.30;;;;;;4347363;28;657228;-65
2022/08/07 08:45:33;;;;;;;2.27;0.70;;;22.40;76.00;;;;;;4344290;28;657260;-65
2022/08/07 08:48:25;;;;;;;1.67;0.53;;;22.70;76.00;;;;;;4355508;28;656751;-65
2022/08/07 08:51:17;;;;;;;5.17;0.70;;;22.30;78.40;;;;;;4351492;28;657577;-65
2022/08/07 08:54:06;;;;;;;2.67;0.67;;;22.70;81.10;;;;;;4348183;28;656321;-64
2022/08/07 08:56:55;;;;;;;4.37;0.73;;;22.60;78.50;;;;;;4350385;28;657825;-65
2022/08/07 08:59:59;;;;;;;1.13;0.60;;;22.90;77.80;;;;;;4350923;28;657933;-64
2022/08/07 09:02:49;;;;;;;1.70;0.70;;;23.00;74.80;;;;;;4351246;28;656478;-65
2022/08/07 09:05:40;;;;;;;2.93;0.63;;;23.30;77.30;;;;;;4339458;28;656620;-65
2022/08/07 09:08:35;;;;;;;3.10;0.90;;;23.60;75.80;;;;;;4349679;28;657880;-66
2022/08/07 09:11:27;;;;;;;2.30;0.87;;;23.80;72.70;;;;;;4339642;28;656684;-65
2022/08/07 09:14:18;;;;;;;1.70;0.83;;;23.50;72.90;;;;;;4344311;28;656700;-65
2022/08/07 09:17:18;;;;;;;2.67;1.00;;;23.30;74.20;;;;;;4331434;28;657619;-66
2022/08/07 09:20:11;;;;;;;1.20;0.90;;;23.70;81.30;;;;;;4327775;28;656252;-66
2022/08/07 09:23:02;;;;;;;4.50;1.20;;;24.00;76.20;;;;;;4346633;28;658167;-65
2022/08/07 09:25:53;;;;;;;4.22;1.05;;;24.20;76.30;;;;;;4360211;28;656436;-66
2022/08/07 09:28:43;;;;;;;4.13;0.90;;;24.50;74.60;;;;;;4350325;28;657041;-64
2022/08/07 09:31:43;;;;;;;2.67;1.20;;;24.30;72.60;;;;;;4345737;28;656910;-65
2022/08/07 09:34:35;;;;;;;2.00;1.10;;;24.20;73.60;;;;;;4332077;28;656344;-67
2022/08/07 09:37:28;;;;;;;2.97;1.15;;;23.70;74.50;;;;;;4346151;28;657192;-65
2022/08/07 09:40:20;;;;;;;4.43;1.00;;;22.80;79.00;;;;;;4320843;28;656792;-65
2022/08/07 09:43:12;;;;;;;4.78;1.30;;;22.50;83.90;;;;;;4344839;28;656736;-64
2022/08/07 09:46:04;;;;;;;3.47;1.00;;;22.60;81.80;;;;;;4356798;28;656613;-65
2022/08/07 09:48:58;;;;;;;6.17;1.00;;;23.40;84.00;;;;;;4349155;28;658040;-65
2022/08/07 09:51:53;;;;;;;4.00;1.17;;;23.50;81.20;;;;;;4359682;28;657362;-65
2022/08/07 09:54:43;;;;;;;3.60;1.20;;;23.10;78.40;;;;;;4332300;28;656695;-66
2022/08/07 09:57:45;;;;;;;8.03;1.20;;;22.70;82.40;;;;;;4347404;28;656717;-66
2022/08/07 10:00:40;;;;;;;5.17;1.97;;;22.30;87.30;;;;;;4343912;28;656532;-65
2022/08/07 10:04:03;;;;;;;7.00;2.20;;;21.90;91.80;;;;;;4332142;28;657843;-65
2022/08/07 10:07:13;;;;;;;3.80;1.40;;;21.70;92.50;;;;;;4303770;28;657208;-64
2022/08/07 10:10:07;;;;;;;6.53;1.80;;;21.50;93.30;;;;;;4327035;28;656690;-65
2022/08/07 10:13:14;;;;;;;1.83;1.10;;;21.30;94.90;;;;;;4341628;28;656610;-64
2022/08/07 10:16:12;;;;;;;2.20;1.17;;;21.10;95.10;;;;;;4351515;28;656739;-65
2022/08/07 10:19:07;;;;;;;3.63;1.50;;;21.50;95.30;;;;;;4349051;28;656971;-65
2022/08/07 10:22:00;;;;;;;2.73;1.30;;;22.10;96.00;;;;;;4336771;28;657306;-64
2022/08/07 10:24:56;;;;;;;2.40;1.20;;;22.30;92.80;;;;;;4342683;28;657082;-64
2022/08/07 10:27:53;;;;;;;1.57;0.93;;;21.70;92.00;;;;;;4346057;28;656629;-65
2022/08/07 10:30:49;;;;;;;2.03;1.13;;;21.80;93.40;;;;;;4350770;28;656550;-64
2022/08/07 10:33:47;;;;;;;4.17;1.20;;;21.80;91.50;;;;;;4314772;28;657115;-64
2022/08/07 10:36:46;;;;;;;1.50;1.10;;;21.70;91.30;;;;;;4344148;28;656939;-65
2022/08/07 10:39:40;;;;;;;3.93;1.50;;;21.60;91.50;;;;;;4341657;28;656765;-66
2022/08/07 10:42:31;;;;;;;2.87;1.20;;;21.70;91.60;;;;;;4323268;28;657747;-64
2022/08/07 10:45:22;;;;;;;9.07;1.47;;;21.60;92.10;;;;;;4333485;28;656460;-64
2022/08/07 10:48:16;;;;;;;4.90;1.20;;;21.60;91.30;;;;;;4339820;28;656500;-64
2022/08/07 10:51:07;;;;;;;2.00;1.10;;;21.60;91.30;;;;;;4342086;28;656757;-64
2022/08/07 10:53:58;;;;;;;1.50;1.00;;;21.70;91.10;;;;;;4344577;28;657657;-64
2022/08/07 10:56:50;;;;;;;2.77;1.07;;;21.70;90.80;;;;;;4362324;28;656281;-65
2022/08/07 10:59:47;;;;;;;3.03;1.07;;;21.80;91.20;;;;;;4344721;28;657797;-65
2022/08/07 11:02:40;;;;;;;4.23;1.27;;;21.70;91.00;;;;;;4346769;28;657018;-64
2022/08/07 11:05:32;;;;;;;3.40;1.30;;;21.60;90.10;;;;;;4322718;28;658364;-64
2022/08/07 11:08:29;;;;;;;2.77;1.17;;;21.40;90.70;;;;;;4342419;28;657093;-64
2022/08/07 11:11:24;;;;;;;7.97;1.93;;;21.20;90.50;;;;;;4343496;28;656861;-64
2022/08/07 11:14:15;;;;;;;1.37;1.10;;;21.10;92.30;;;;;;4318336;28;657272;-64
2022/08/07 11:17:05;;;;;;;4.17;1.23;;;21.30;93.30;;;;;;4345718;28;657153;-63
2022/08/07 11:19:55;;;;;;;4.57;1.20;;;21.10;91.30;;;;;;4346013;28;657351;-64
2022/08/07 11:22:47;;;;;;;3.43;1.10;;;21.40;90.90;;;;;;4346299;28;656586;-63
2022/08/07 11:25:37;;;;;;;2.53;1.17;;;21.60;90.90;;;;;;4339264;28;656942;-65
2022/08/07 11:28:26;;;;;;;2.33;0.93;;;21.60;92.10;;;;;;4365642;28;656976;-65
2022/08/07 11:31:20;;;;;;;4.17;1.40;;;21.80;91.40;;;;;;4352393;28;656881;-64
2022/08/07 11:34:12;;;;;;;3.30;1.00;;;21.50;92.20;;;;;;4330713;28;657518;-64
2022/08/07 11:37:02;;;;;;;8.17;1.30;;;21.70;91.20;;;;;;4352675;28;656625;-64
2022/08/07 11:39:55;;;;;;;4.10;1.37;;;21.70;91.30;;;;;;4345932;28;656573;-65
2022/08/07 11:42:47;;;;;;;2.77;1.20;;;21.80;90.60;;;;;;4327637;28;658039;-64
2022/08/07 11:45:53;;;;;;;2.33;1.30;;;22.10;91.00;;;;;;4356478;28;656333;-66
2022/08/07 11:49:16;;;;;;;3.40;1.07;;;22.20;91.70;;;;;;4336622;28;656512;-65
2022/08/07 11:52:19;;;;;;;7.53;1.10;;;22.70;91.30;;;;;;4346971;28;656956;-64
2022/08/07 11:55:13;;;;;;;2.43;1.10;;;22.80;90.40;;;;;;4328769;28;656651;-64
2022/08/07 11:58:05;;;;;;;2.87;1.20;;;22.90;87.90;;;;;;4352742;28;656773;-65
2022/08/07 12:00:58;;;;;;;4.33;1.20;;;23.00;86.50;;;;;;4345399;28;657436;-64
2022/08/07 12:03:53;;;;;;;7.87;2.80;;;22.90;87.00;;;;;;4314961;28;656719;-66
2022/08/07 12:06:45;;;;;;;4.83;2.40;;;22.90;89.40;;;;;;4327270;28;657050;-65
2022/08/07 12:09:35;;;;;;;1.53;1.20;;;22.80;86.40;;;;;;4342075;28;657993;-64
2022/08/07 12:12:25;;;;;;;2.47;1.20;;;22.90;86.80;;;;;;4344525;28;657182;-64
2022/08/07 12:15:15;;;;;;;2.83;1.00;;;23.20;87.40;;;;;;4339633;28;657823;-64
2022/08/07 12:18:05;;;;;;;5.50;1.23;;;23.60;83.00;;;;;;4343297;28;657874;-64
2022/08/07 12:20:58;;;;;;;1.73;0.90;;;23.90;82.70;;;;;;4348770;28;657444;-64
2022/08/07 12:23:49;;;;;;;2.25;1.25;;;24.10;82.90;;;;;;4335551;28;656360;-65
2022/08/07 12:26:40;;;;;;;2.28;1.23;;;23.90;80.20;;;;;;4340893;28;657283;-65
2022/08/07 12:29:29;;;;;;;1.88;1.08;;;23.80;79.80;;;;;;4339978;28;657937;-65
2022/08/07 12:32:19;;;;;;;7.93;3.03;;;24.00;81.30;;;;;;4350857;28;656833;-65
2022/08/07 12:35:09;;;;;;;2.78;1.40;;;23.70;80.00;;;;;;4353698;28;656844;-65
2022/08/07 12:37:56;;;;;;;2.53;1.20;;;23.90;81.10;;;;;;4346258;28;657128;-65
2022/08/07 12:40:44;;;;;;;1.85;0.88;;;23.90;83.00;;;;;;4373355;28;656980;-65
2022/08/07 12:43:32;;;;;;;1.55;0.90;;;24.00;79.80;;;;;;4346967;28;656670;-66
2022/08/07 12:46:28;;;;;;;2.28;1.00;;;23.80;79.80;;;;;;4365829;28;656605;-64
2022/08/07 12:49:21;;;;;;;5.60;1.27;;;23.70;82.40;;;;;;4331176;28;656758;-65
2022/08/07 12:52:12;;;;;;;8.65;1.40;;;23.60;79.00;;;;;;4347170;28;657060;-65
2022/08/07 12:55:01;;;;;;;3.60;1.10;;;23.60;78.30;;;;;;4349317;28;656110;-65
2022/08/07 12:57:48;;;;;;;6.90;1.38;;;23.60;81.40;;;;;;4340051;28;657728;-65
2022/08/07 13:00:41;;;;;;;5.80;1.00;;;24.00;78.90;;;;;;4362340;28;656601;-66
2022/08/07 13:03:50;;;;;;;2.58;1.02;;;24.20;77.00;;;;;;4338234;28;656740;-66
2022/08/07 13:07:17;;;;;;;2.20;1.02;;;24.40;78.00;;;;;;4308991;28;657128;-66
2022/08/07 13:10:15;;;;;;;2.88;1.00;;;24.30;77.20;;;;;;4332689;28;657068;-66
2022/08/07 13:13:10;;;;;;;2.60;1.00;;;24.10;76.60;;;;;;4313348;28;656777;-66
2022/08/07 13:16:00;;;;;;;1.85;0.90;;;24.10;77.00;;;;;;4340058;28;656565;-66
2022/08/07 13:18:51;;;;;;;3.13;1.05;;;24.10;76.00;;;;;;4335970;28;656828;-65
2022/08/07 13:21:41;;;;;;;1.52;0.95;;;23.90;77.80;;;;;;4337650;28;657196;-65
2022/08/07 13:24:34;;;;;;;7.13;1.27;;;23.60;77.00;;;;;;4337507;28;657027;-65
2022/08/07 13:27:35;;;;;;;3.47;1.20;;;23.70;80.00;;;;;;4316514;28;656931;-65
2022/08/07 13:30:23;;;;;;;2.77;1.10;;;23.70;73.20;;;;;;4322547;28;656954;-65
2022/08/07 13:33:17;;;;;;;8.07;0.95;;;23.40;78.20;;;;;;4348937;28;656554;-66
2022/08/07 13:36:08;;;;;;;2.45;0.95;;;23.20;79.80;;;;;;4342719;28;657000;-66
2022/08/07 13:39:00;;;;;;;2.92;0.98;;;23.50;78.50;;;;;;4329792;28;657152;-66
2022/08/07 13:41:49;;;;;;;3.63;1.10;;;23.30;79.60;;;;;;4341022;28;657112;-65
2022/08/07 13:44:38;;;;;;;2.20;1.00;;;23.20;77.40;;;;;;4348888;28;656453;-65
2022/08/07 13:47:27;;;;;;;2.47;1.10;;;22.90;83.00;;;;;;4353017;28;656155;-66
2022/08/07 13:50:14;;;;;;;2.55;1.20;;;22.70;84.40;;;;;;4372766;28;656687;-65
2022/08/07 13:53:01;;;;;;;2.53;1.20;;;22.90;86.60;;;;;;4349531;28;656709;-65
2022/08/07 13:55:49;;;;;;;4.05;1.38;;;22.80;80.50;;;;;;4372384;28;656875;-65
2022/08/07 14:01:49;;;;;;;5.18;1.30;;;23.30;82.70;;;;;;4329747;28;657480;-64
2022/08/07 14:04:38;;;;;;;47.05;24.15;;;23.70;83.20;;;;;;4355045;28;657106;-66
2022/08/07 14:07:27;;;;;;;28.13;14.77;;;24.00;78.60;;;;;;4349020;28;658605;-65
2022/08/07 14:10:16;;;;;;;37.42;19.00;;;24.50;77.60;;;;;;4366583;28;658182;-65
2022/08/07 14:13:03;;;;;;;7.82;3.33;;;24.80;75.10;;;;;;4339877;28;658661;-64
2022/08/07 14:15:51;;;;;;;5.18;1.30;;;25.20;71.20;;;;;;4345124;28;657122;-66
2022/08/07 14:18:44;;;;;;;2.35;1.00;;;25.30;70.30;;;;;;4359538;28;657009;-66
2022/08/07 14:21:33;;;;;;;2.08;1.30;;;25.40;68.10;;;;;;4321824;28;657277;-65
2022/08/07 14:24:25;;;;;;;2.70;1.27;;;25.70;69.10;;;;;;4342597;28;656626;-65
2022/08/07 14:27:13;;;;;;;1.35;1.00;;;25.50;65.20;;;;;;4340281;28;657296;-66
2022/08/07 14:30:03;;;;;;;6.38;1.23;;;25.30;65.50;;;;;;4356545;28;656665;-66
2022/08/07 14:32:54;;;;;;;4.50;1.02;;;25.80;65.80;;;;;;4346105;28;656285;-66
2022/08/07 14:35:43;;;;;;;3.28;2.00;;;26.30;66.70;;;;;;4347452;28;656450;-65
2022/08/07 14:38:31;;;;;;;2.35;0.80;;;26.00;65.00;;;;;;4359096;28;656288;-65
2022/08/07 14:41:25;;;;;;;4.40;1.05;;;26.30;65.60;;;;;;4361443;28;657080;-65